sensor_id;sensor_type;location;lat;lon;timestamp;P1;durP1;ratioP1;P2;durP2;ratioP2
16119;SDS011;12670;53.502;10.252;2023-02-26T00:00:59;4.50;;;1.50;;
16119;SDS011;12670;53.502;10.252;2023-02-26T00:04:03;3.33;;;1.50;;
16119;SDS011;12670;53.502;10.252;2023-02-26T00:07:07;5.57;;;1.53;;
16119;SDS011;12670;53.502;10.252;2023-02-26T00:10:10;6.67;;;1.63;;
16119;SDS011;12670;53.502;10.252;2023-02-26T00:13:15;3.47;;;1.70;;
16119;SDS011;12670;53.502;10.252;2023-02-26T00:16:22;3.77;;;1.37;;
16119;SDS011;12670;53.502;10.252;2023-02-26T00:19:28;6.60;;;1.70;;
16119;SDS011;12670;53.502;10.252;2023-02-26T00:22:31;9.33;;;1.93;;
16119;SDS011;12670;53.502;10.252;2023-02-26T00:25:34;6.80;;;2.00;;
16119;SDS011;12670;53.502;10.252;2023-02-26T00:28:37;4.87;;;1.40;;
16119;SDS011;12670;53.502;10.252;2023-02-26T00:31:42;3.17;;;1.33;;
16119;SDS011;12670;53.502;10.252;2023-02-26T00:34:45;5.20;;;1.83;;
16119;SDS011;12670;53.502;10.252;2023-02-26T00:37:53;7.03;;;1.50;;
16119;SDS011;12670;53.502;10.252;2023-02-26T00:41:01;4.33;;;1.50;;
16119;SDS011;12670;53.502;10.252;2023-02-26T00:44:04;6.50;;;2.10;;
16119;SDS011;12670;53.502;10.252;2023-02-26T00:47:10;7.53;;;1.83;;
16119;SDS011;12670;53.502;10.252;2023-02-26T00:50:19;4.20;;;1.50;;
16119;SDS011;12670;53.502;10.252;2023-02-26T00:53:26;4.23;;;1.50;;
16119;SDS011;12670;53.502;10.252;2023-02-26T00:56:32;7.40;;;1.80;;
16119;SDS011;12670;53.502;10.252;2023-02-26T00:59:35;9.27;;;1.70;;
16119;SDS011;12670;53.502;10.252;2023-02-26T01:02:39;7.50;;;2.13;;
16119;SDS011;12670;53.502;10.252;2023-02-26T01:05:43;4.17;;;1.63;;
16119;SDS011;12670;53.502;10.252;2023-02-26T01:08:46;7.80;;;2.10;;
16119;SDS011;12670;53.502;10.252;2023-02-26T01:11:56;7.30;;;1.90;;
16119;SDS011;12670;53.502;10.252;2023-02-26T01:15:02;4.50;;;1.70;;
16119;SDS011;12670;53.502;10.252;2023-02-26T01:18:08;6.93;;;2.20;;
16119;SDS011;12670;53.502;10.252;2023-02-26T01:21:16;3.57;;;1.73;;
16119;SDS011;12670;53.502;10.252;2023-02-26T01:24:23;5.97;;;1.93;;
16119;SDS011;12670;53.502;10.252;2023-02-26T01:27:28;4.20;;;1.53;;
16119;SDS011;12670;53.502;10.252;2023-02-26T01:30:31;4.63;;;1.80;;
16119;SDS011;12670;53.502;10.252;2023-02-26T01:33:37;4.83;;;1.63;;
16119;SDS011;12670;53.502;10.252;2023-02-26T01:36:46;8.73;;;1.97;;
16119;SDS011;12670;53.502;10.252;2023-02-26T01:40:00;3.50;;;1.77;;
16119;SDS011;12670;53.502;10.252;2023-02-26T01:43:24;5.13;;;1.90;;
16119;SDS011;12670;53.502;10.252;2023-02-26T01:46:35;5.07;;;1.80;;
16119;SDS011;12670;53.502;10.252;2023-02-26T01:49:44;6.50;;;1.80;;
16119;SDS011;12670;53.502;10.252;2023-02-26T01:56:24;4.50;;;1.40;;
16119;SDS011;12670;53.502;10.252;2023-02-26T01:59:27;4.40;;;1.30;;
16119;SDS011;12670;53.502;10.252;2023-02-26T02:02:29;6.80;;;1.63;;
16119;SDS011;12670;53.502;10.252;2023-02-26T02:05:41;5.10;;;1.40;;
16119;SDS011;12670;53.502;10.252;2023-02-26T02:08:46;5.83;;;1.20;;
16119;SDS011;12670;53.502;10.252;2023-02-26T02:11:57;5.03;;;1.33;;
16119;SDS011;12670;53.502;10.252;2023-02-26T02:15:09;2.50;;;1.00;;
16119;SDS011;12670;53.502;10.252;2023-02-26T02:18:17;4.40;;;1.20;;
16119;SDS011;12670;53.502;10.252;2023-02-26T02:21:31;5.13;;;1.20;;
16119;SDS011;12670;53.502;10.252;2023-02-26T02:24:49;5.27;;;1.23;;
16119;SDS011;12670;53.502;10.252;2023-02-26T02:28:04;3.13;;;1.10;;
16119;SDS011;12670;53.502;10.252;2023-02-26T02:31:17;1.63;;;1.00;;
16119;SDS011;12670;53.502;10.252;2023-02-26T02:34:25;4.97;;;1.43;;
16119;SDS011;12670;53.502;10.252;2023-02-26T02:37:31;2.60;;;1.03;;
16119;SDS011;12670;53.502;10.252;2023-02-26T02:40:39;1.63;;;1.03;;
16119;SDS011;12670;53.502;10.252;2023-02-26T02:43:45;2.07;;;1.00;;
16119;SDS011;12670;53.502;10.252;2023-02-26T02:46:51;4.50;;;1.23;;
16119;SDS011;12670;53.502;10.252;2023-02-26T02:49:58;3.90;;;1.13;;
16119;SDS011;12670;53.502;10.252;2023-02-26T02:53:07;4.87;;;1.23;;
16119;SDS011;12670;53.502;10.252;2023-02-26T02:56:16;3.67;;;1.00;;
16119;SDS011;12670;53.502;10.252;2023-02-26T02:59:26;3.17;;;0.90;;
16119;SDS011;12670;53.502;10.252;2023-02-26T03:02:36;3.77;;;1.07;;
16119;SDS011;12670;53.502;10.252;2023-02-26T03:05:47;4.07;;;1.10;;
16119;SDS011;12670;53.502;10.252;2023-02-26T03:08:50;1.30;;;0.90;;
16119;SDS011;12670;53.502;10.252;2023-02-26T03:11:54;1.70;;;1.10;;
16119;SDS011;12670;53.502;10.252;2023-02-26T03:14:56;4.57;;;1.03;;
16119;SDS011;12670;53.502;10.252;2023-02-26T03:18:06;2.07;;;1.17;;
16119;SDS011;12670;53.502;10.252;2023-02-26T03:21:16;2.70;;;0.90;;
16119;SDS011;12670;53.502;10.252;2023-02-26T03:24:24;2.33;;;1.10;;
16119;SDS011;12670;53.502;10.252;2023-02-26T03:27:32;2.13;;;1.27;;
16119;SDS011;12670;53.502;10.252;2023-02-26T03:30:38;5.63;;;1.40;;
16119;SDS011;12670;53.502;10.252;2023-02-26T03:33:49;4.30;;;1.20;;
16119;SDS011;12670;53.502;10.252;2023-02-26T03:36:56;2.63;;;1.10;;
16119;SDS011;12670;53.502;10.252;2023-02-26T03:40:05;2.77;;;1.33;;
16119;SDS011;12670;53.502;10.252;2023-02-26T03:43:13;4.33;;;1.37;;
16119;SDS011;12670;53.502;10.252;2023-02-26T03:46:21;3.87;;;1.33;;
16119;SDS011;12670;53.502;10.252;2023-02-26T03:49:31;3.13;;;0.93;;
16119;SDS011;12670;53.502;10.252;2023-02-26T03:52:38;3.73;;;1.47;;
16119;SDS011;12670;53.502;10.252;2023-02-26T03:55:45;3.47;;;1.33;;
16119;SDS011;12670;53.502;10.252;2023-02-26T03:58:51;8.80;;;1.73;;
16119;SDS011;12670;53.502;10.252;2023-02-26T04:01:55;4.83;;;1.60;;
16119;SDS011;12670;53.502;10.252;2023-02-26T04:05:06;6.57;;;1.80;;
16119;SDS011;12670;53.502;10.252;2023-02-26T04:08:13;4.27;;;1.27;;
16119;SDS011;12670;53.502;10.252;2023-02-26T04:11:16;4.57;;;1.57;;
16119;SDS011;12670;53.502;10.252;2023-02-26T04:14:22;3.13;;;1.30;;
16119;SDS011;12670;53.502;10.252;2023-02-26T04:17:25;6.00;;;1.53;;
16119;SDS011;12670;53.502;10.252;2023-02-26T04:20:31;2.53;;;1.20;;
16119;SDS011;12670;53.502;10.252;2023-02-26T04:23:34;4.93;;;1.40;;
16119;SDS011;12670;53.502;10.252;2023-02-26T04:26:37;4.70;;;1.67;;
16119;SDS011;12670;53.502;10.252;2023-02-26T04:29:39;4.20;;;1.23;;
16119;SDS011;12670;53.502;10.252;2023-02-26T04:32:42;5.93;;;1.50;;
16119;SDS011;12670;53.502;10.252;2023-02-26T04:35:46;4.97;;;2.03;;
16119;SDS011;12670;53.502;10.252;2023-02-26T04:38:49;5.63;;;1.50;;
16119;SDS011;12670;53.502;10.252;2023-02-26T04:41:51;3.20;;;1.33;;
16119;SDS011;12670;53.502;10.252;2023-02-26T04:44:54;5.60;;;1.80;;
16119;SDS011;12670;53.502;10.252;2023-02-26T04:47:56;6.97;;;2.00;;
16119;SDS011;12670;53.502;10.252;2023-02-26T04:51:00;3.33;;;1.40;;
16119;SDS011;12670;53.502;10.252;2023-02-26T04:54:03;4.90;;;1.20;;
16119;SDS011;12670;53.502;10.252;2023-02-26T04:57:06;3.03;;;1.10;;
16119;SDS011;12670;53.502;10.252;2023-02-26T05:00:09;3.93;;;1.30;;
16119;SDS011;12670;53.502;10.252;2023-02-26T05:03:13;7.07;;;1.13;;
16119;SDS011;12670;53.502;10.252;2023-02-26T05:06:17;2.87;;;1.20;;
16119;SDS011;12670;53.502;10.252;2023-02-26T05:09:20;5.80;;;1.77;;
16119;SDS011;12670;53.502;10.252;2023-02-26T05:12:22;2.77;;;1.20;;
16119;SDS011;12670;53.502;10.252;2023-02-26T05:15:25;4.20;;;1.40;;
16119;SDS011;12670;53.502;10.252;2023-02-26T05:18:28;3.10;;;1.20;;
16119;SDS011;12670;53.502;10.252;2023-02-26T05:21:32;4.70;;;1.30;;
16119;SDS011;12670;53.502;10.252;2023-02-26T05:24:35;3.63;;;1.30;;
16119;SDS011;12670;53.502;10.252;2023-02-26T05:27:38;5.30;;;1.40;;
16119;SDS011;12670;53.502;10.252;2023-02-26T05:30:42;5.50;;;1.20;;
16119;SDS011;12670;53.502;10.252;2023-02-26T05:33:45;3.20;;;1.27;;
16119;SDS011;12670;53.502;10.252;2023-02-26T05:36:49;4.13;;;1.50;;
16119;SDS011;12670;53.502;10.252;2023-02-26T05:39:51;4.67;;;1.53;;
16119;SDS011;12670;53.502;10.252;2023-02-26T05:42:54;4.27;;;1.33;;
16119;SDS011;12670;53.502;10.252;2023-02-26T05:45:56;5.03;;;1.40;;
16119;SDS011;12670;53.502;10.252;2023-02-26T05:48:59;2.30;;;1.10;;
16119;SDS011;12670;53.502;10.252;2023-02-26T05:52:03;3.60;;;1.17;;
16119;SDS011;12670;53.502;10.252;2023-02-26T05:55:06;4.80;;;1.40;;
16119;SDS011;12670;53.502;10.252;2023-02-26T05:58:10;4.37;;;1.20;;
16119;SDS011;12670;53.502;10.252;2023-02-26T06:01:13;5.23;;;1.83;;
16119;SDS011;12670;53.502;10.252;2023-02-26T06:04:15;2.37;;;1.23;;
16119;SDS011;12670;53.502;10.252;2023-02-26T06:07:20;3.47;;;1.63;;
16119;SDS011;12670;53.502;10.252;2023-02-26T06:10:22;4.60;;;1.20;;
16119;SDS011;12670;53.502;10.252;2023-02-26T06:13:25;5.00;;;1.40;;
16119;SDS011;12670;53.502;10.252;2023-02-26T06:16:27;6.93;;;1.20;;
16119;SDS011;12670;53.502;10.252;2023-02-26T06:19:30;9.03;;;1.43;;
16119;SDS011;12670;53.502;10.252;2023-02-26T06:22:34;6.37;;;1.27;;
16119;SDS011;12670;53.502;10.252;2023-02-26T06:25:37;7.40;;;1.43;;
16119;SDS011;12670;53.502;10.252;2023-02-26T06:28:40;4.70;;;1.30;;
16119;SDS011;12670;53.502;10.252;2023-02-26T06:31:42;5.53;;;1.40;;
16119;SDS011;12670;53.502;10.252;2023-02-26T06:34:45;8.63;;;1.43;;
16119;SDS011;12670;53.502;10.252;2023-02-26T06:37:50;4.57;;;1.50;;
16119;SDS011;12670;53.502;10.252;2023-02-26T06:40:52;2.40;;;1.23;;
16119;SDS011;12670;53.502;10.252;2023-02-26T06:43:55;5.43;;;1.43;;
16119;SDS011;12670;53.502;10.252;2023-02-26T06:46:57;4.27;;;1.30;;
16119;SDS011;12670;53.502;10.252;2023-02-26T06:50:00;3.13;;;1.50;;
16119;SDS011;12670;53.502;10.252;2023-02-26T06:53:05;4.20;;;1.53;;
16119;SDS011;12670;53.502;10.252;2023-02-26T06:56:08;4.37;;;1.63;;
16119;SDS011;12670;53.502;10.252;2023-02-26T06:59:10;4.10;;;1.40;;
16119;SDS011;12670;53.502;10.252;2023-02-26T07:02:15;2.87;;;1.30;;
16119;SDS011;12670;53.502;10.252;2023-02-26T07:05:19;4.43;;;1.40;;
16119;SDS011;12670;53.502;10.252;2023-02-26T07:08:23;6.10;;;1.60;;
16119;SDS011;12670;53.502;10.252;2023-02-26T07:11:26;6.27;;;1.60;;
16119;SDS011;12670;53.502;10.252;2023-02-26T07:14:29;2.57;;;1.50;;
16119;SDS011;12670;53.502;10.252;2023-02-26T07:17:31;4.57;;;1.27;;
16119;SDS011;12670;53.502;10.252;2023-02-26T07:20:34;6.83;;;1.40;;
16119;SDS011;12670;53.502;10.252;2023-02-26T07:23:38;6.03;;;1.77;;
16119;SDS011;12670;53.502;10.252;2023-02-26T07:26:41;4.43;;;1.43;;
16119;SDS011;12670;53.502;10.252;2023-02-26T07:29:43;9.23;;;1.43;;
16119;SDS011;12670;53.502;10.252;2023-02-26T07:32:46;2.73;;;1.10;;
16119;SDS011;12670;53.502;10.252;2023-02-26T07:35:49;4.83;;;1.30;;
16119;SDS011;12670;53.502;10.252;2023-02-26T07:38:53;4.33;;;1.30;;
16119;SDS011;12670;53.502;10.252;2023-02-26T07:41:55;3.67;;;1.30;;
16119;SDS011;12670;53.502;10.252;2023-02-26T07:44:58;5.80;;;1.40;;
16119;SDS011;12670;53.502;10.252;2023-02-26T07:48:01;5.17;;;1.40;;
16119;SDS011;12670;53.502;10.252;2023-02-26T07:51:04;6.67;;;1.40;;
16119;SDS011;12670;53.502;10.252;2023-02-26T07:54:09;4.87;;;1.20;;
16119;SDS011;12670;53.502;10.252;2023-02-26T07:57:11;4.53;;;1.20;;
16119;SDS011;12670;53.502;10.252;2023-02-26T08:00:15;8.33;;;1.60;;
16119;SDS011;12670;53.502;10.252;2023-02-26T08:03:18;3.77;;;1.50;;
16119;SDS011;12670;53.502;10.252;2023-02-26T08:06:21;6.20;;;1.60;;
16119;SDS011;12670;53.502;10.252;2023-02-26T08:09:26;4.40;;;1.40;;
16119;SDS011;12670;53.502;10.252;2023-02-26T08:12:28;4.83;;;1.63;;
16119;SDS011;12670;53.502;10.252;2023-02-26T08:15:31;5.50;;;1.77;;
16119;SDS011;12670;53.502;10.252;2023-02-26T08:18:34;5.73;;;1.47;;
16119;SDS011;12670;53.502;10.252;2023-02-26T08:21:36;6.33;;;1.70;;
16119;SDS011;12670;53.502;10.252;2023-02-26T08:24:41;6.50;;;2.40;;
16119;SDS011;12670;53.502;10.252;2023-02-26T08:27:43;5.37;;;1.50;;
16119;SDS011;12670;53.502;10.252;2023-02-26T08:30:46;8.77;;;1.63;;
16119;SDS011;12670;53.502;10.252;2023-02-26T08:33:48;7.03;;;1.60;;
16119;SDS011;12670;53.502;10.252;2023-02-26T08:36:51;7.60;;;2.07;;
16119;SDS011;12670;53.502;10.252;2023-02-26T08:39:55;4.93;;;1.43;;
16119;SDS011;12670;53.502;10.252;2023-02-26T08:42:58;4.10;;;1.50;;
16119;SDS011;12670;53.502;10.252;2023-02-26T08:46:00;5.17;;;1.40;;
16119;SDS011;12670;53.502;10.252;2023-02-26T08:49:03;4.07;;;1.60;;
16119;SDS011;12670;53.502;10.252;2023-02-26T08:52:06;4.97;;;1.30;;
16119;SDS011;12670;53.502;10.252;2023-02-26T08:55:10;6.40;;;1.33;;
16119;SDS011;12670;53.502;10.252;2023-02-26T08:58:13;3.77;;;1.40;;
16119;SDS011;12670;53.502;10.252;2023-02-26T09:01:15;3.13;;;1.30;;
16119;SDS011;12670;53.502;10.252;2023-02-26T09:04:18;7.13;;;1.53;;
16119;SDS011;12670;53.502;10.252;2023-02-26T09:07:20;3.17;;;1.10;;
16119;SDS011;12670;53.502;10.252;2023-02-26T09:10:25;3.70;;;1.17;;
16119;SDS011;12670;53.502;10.252;2023-02-26T09:13:27;3.40;;;1.43;;
16119;SDS011;12670;53.502;10.252;2023-02-26T09:16:31;2.07;;;1.10;;
16119;SDS011;12670;53.502;10.252;2023-02-26T09:19:35;5.53;;;1.20;;
16119;SDS011;12670;53.502;10.252;2023-02-26T09:22:38;1.87;;;1.00;;
16119;SDS011;12670;53.502;10.252;2023-02-26T09:25:42;3.37;;;1.20;;
16119;SDS011;12670;53.502;10.252;2023-02-26T09:28:45;4.10;;;1.20;;
16119;SDS011;12670;53.502;10.252;2023-02-26T09:31:48;7.30;;;1.33;;
16119;SDS011;12670;53.502;10.252;2023-02-26T09:34:50;2.83;;;0.80;;
16119;SDS011;12670;53.502;10.252;2023-02-26T09:37:53;3.57;;;1.10;;
16119;SDS011;12670;53.502;10.252;2023-02-26T09:40:59;3.83;;;1.10;;
16119;SDS011;12670;53.502;10.252;2023-02-26T09:44:06;2.60;;;0.97;;
16119;SDS011;12670;53.502;10.252;2023-02-26T09:47:14;4.00;;;1.00;;
16119;SDS011;12670;53.502;10.252;2023-02-26T09:50:24;3.50;;;1.00;;
16119;SDS011;12670;53.502;10.252;2023-02-26T09:53:31;2.50;;;0.83;;
16119;SDS011;12670;53.502;10.252;2023-02-26T09:56:39;2.53;;;0.90;;
16119;SDS011;12670;53.502;10.252;2023-02-26T09:59:42;3.33;;;1.00;;
16119;SDS011;12670;53.502;10.252;2023-02-26T10:02:47;2.20;;;0.83;;
16119;SDS011;12670;53.502;10.252;2023-02-26T10:06:05;1.33;;;0.77;;
16119;SDS011;12670;53.502;10.252;2023-02-26T10:09:23;1.50;;;0.70;;
16119;SDS011;12670;53.502;10.252;2023-02-26T10:12:35;1.67;;;0.87;;
16119;SDS011;12670;53.502;10.252;2023-02-26T10:15:41;2.90;;;1.13;;
16119;SDS011;12670;53.502;10.252;2023-02-26T10:18:46;1.80;;;0.90;;
16119;SDS011;12670;53.502;10.252;2023-02-26T10:21:53;1.37;;;0.90;;
16119;SDS011;12670;53.502;10.252;2023-02-26T10:25:02;1.43;;;0.93;;
16119;SDS011;12670;53.502;10.252;2023-02-26T10:28:16;1.43;;;0.90;;
16119;SDS011;12670;53.502;10.252;2023-02-26T10:31:35;2.07;;;0.90;;
16119;SDS011;12670;53.502;10.252;2023-02-26T10:34:46;2.63;;;0.90;;
16119;SDS011;12670;53.502;10.252;2023-02-26T10:37:54;2.00;;;0.90;;
16119;SDS011;12670;53.502;10.252;2023-02-26T10:40:59;1.83;;;0.80;;
16119;SDS011;12670;53.502;10.252;2023-02-26T10:44:08;1.57;;;0.90;;
16119;SDS011;12670;53.502;10.252;2023-02-26T10:47:18;2.03;;;1.00;;
16119;SDS011;12670;53.502;10.252;2023-02-26T10:50:28;2.57;;;0.90;;
16119;SDS011;12670;53.502;10.252;2023-02-26T10:53:32;2.03;;;0.80;;
16119;SDS011;12670;53.502;10.252;2023-02-26T10:56:35;2.53;;;0.90;;
16119;SDS011;12670;53.502;10.252;2023-02-26T10:59:39;1.47;;;0.70;;
16119;SDS011;12670;53.502;10.252;2023-02-26T11:02:43;2.00;;;0.80;;
16119;SDS011;12670;53.502;10.252;2023-02-26T11:05:48;6.47;;;1.00;;
16119;SDS011;12670;53.502;10.252;2023-02-26T11:08:51;1.73;;;1.00;;
16119;SDS011;12670;53.502;10.252;2023-02-26T11:11:56;2.10;;;0.80;;
16119;SDS011;12670;53.502;10.252;2023-02-26T11:15:12;1.40;;;0.67;;
16119;SDS011;12670;53.502;10.252;2023-02-26T11:18:17;2.30;;;0.93;;
16119;SDS011;12670;53.502;10.252;2023-02-26T11:21:24;2.20;;;0.90;;
16119;SDS011;12670;53.502;10.252;2023-02-26T11:24:31;2.20;;;0.80;;
16119;SDS011;12670;53.502;10.252;2023-02-26T11:27:37;1.87;;;0.77;;
16119;SDS011;12670;53.502;10.252;2023-02-26T11:30:41;0.93;;;0.70;;
16119;SDS011;12670;53.502;10.252;2023-02-26T11:33:47;3.77;;;1.27;;
16119;SDS011;12670;53.502;10.252;2023-02-26T11:36:52;1.63;;;0.90;;
16119;SDS011;12670;53.502;10.252;2023-02-26T11:39:59;3.73;;;0.90;;
16119;SDS011;12670;53.502;10.252;2023-02-26T11:43:10;4.33;;;1.20;;
16119;SDS011;12670;53.502;10.252;2023-02-26T11:46:17;1.30;;;0.80;;
16119;SDS011;12670;53.502;10.252;2023-02-26T11:49:26;4.63;;;1.07;;
16119;SDS011;12670;53.502;10.252;2023-02-26T11:52:31;3.27;;;1.10;;
16119;SDS011;12670;53.502;10.252;2023-02-26T11:55:36;2.57;;;1.00;;
16119;SDS011;12670;53.502;10.252;2023-02-26T11:58:42;4.50;;;1.00;;
16119;SDS011;12670;53.502;10.252;2023-02-26T12:01:49;3.27;;;0.90;;
16119;SDS011;12670;53.502;10.252;2023-02-26T12:04:53;1.63;;;0.90;;
16119;SDS011;12670;53.502;10.252;2023-02-26T12:07:58;0.83;;;0.70;;
16119;SDS011;12670;53.502;10.252;2023-02-26T12:11:10;3.97;;;1.00;;
16119;SDS011;12670;53.502;10.252;2023-02-26T12:14:31;2.10;;;0.90;;
16119;SDS011;12670;53.502;10.252;2023-02-26T12:17:56;2.80;;;0.93;;
16119;SDS011;12670;53.502;10.252;2023-02-26T12:21:14;1.90;;;0.90;;
16119;SDS011;12670;53.502;10.252;2023-02-26T12:24:34;3.40;;;0.90;;
16119;SDS011;12670;53.502;10.252;2023-02-26T12:27:58;3.23;;;0.90;;
16119;SDS011;12670;53.502;10.252;2023-02-26T12:34:57;2.03;;;1.10;;
16119;SDS011;12670;53.502;10.252;2023-02-26T12:38:19;6.10;;;1.50;;
16119;SDS011;12670;53.502;10.252;2023-02-26T12:41:30;3.40;;;1.17;;
16119;SDS011;12670;53.502;10.252;2023-02-26T12:44:50;3.90;;;1.30;;
16119;SDS011;12670;53.502;10.252;2023-02-26T12:48:07;5.73;;;1.20;;
16119;SDS011;12670;53.502;10.252;2023-02-26T12:51:40;4.47;;;1.77;;
16119;SDS011;12670;53.502;10.252;2023-02-26T12:54:56;5.03;;;1.80;;
16119;SDS011;12670;53.502;10.252;2023-02-26T13:01:43;3.50;;;1.40;;
16119;SDS011;12670;53.502;10.252;2023-02-26T13:05:14;3.23;;;1.00;;
16119;SDS011;12670;53.502;10.252;2023-02-26T13:08:29;4.83;;;1.47;;
16119;SDS011;12670;53.502;10.252;2023-02-26T13:11:43;3.93;;;1.20;;
16119;SDS011;12670;53.502;10.252;2023-02-26T13:14:53;4.80;;;1.20;;
16119;SDS011;12670;53.502;10.252;2023-02-26T13:18:08;2.70;;;1.20;;
16119;SDS011;12670;53.502;10.252;2023-02-26T13:21:18;3.20;;;1.30;;
16119;SDS011;12670;53.502;10.252;2023-02-26T13:24:27;7.50;;;1.50;;
16119;SDS011;12670;53.502;10.252;2023-02-26T13:27:36;4.77;;;1.10;;
16119;SDS011;12670;53.502;10.252;2023-02-26T13:30:41;2.77;;;1.10;;
16119;SDS011;12670;53.502;10.252;2023-02-26T13:33:49;3.13;;;1.20;;
16119;SDS011;12670;53.502;10.252;2023-02-26T13:36:54;3.97;;;1.30;;
16119;SDS011;12670;53.502;10.252;2023-02-26T13:40:03;4.53;;;1.10;;
16119;SDS011;12670;53.502;10.252;2023-02-26T13:43:23;4.03;;;1.10;;
16119;SDS011;12670;53.502;10.252;2023-02-26T13:46:38;2.90;;;1.17;;
16119;SDS011;12670;53.502;10.252;2023-02-26T13:49:58;1.57;;;1.00;;
16119;SDS011;12670;53.502;10.252;2023-02-26T13:56:53;4.13;;;0.93;;
16119;SDS011;12670;53.502;10.252;2023-02-26T14:00:08;5.17;;;1.00;;
16119;SDS011;12670;53.502;10.252;2023-02-26T14:03:30;2.43;;;1.17;;
16119;SDS011;12670;53.502;10.252;2023-02-26T14:06:36;2.80;;;1.20;;
16119;SDS011;12670;53.502;10.252;2023-02-26T14:09:43;5.50;;;1.30;;
16119;SDS011;12670;53.502;10.252;2023-02-26T14:13:03;4.03;;;1.10;;
16119;SDS011;12670;53.502;10.252;2023-02-26T14:16:19;3.57;;;1.13;;
16119;SDS011;12670;53.502;10.252;2023-02-26T14:19:27;3.60;;;1.27;;
16119;SDS011;12670;53.502;10.252;2023-02-26T14:22:34;2.70;;;1.10;;
16119;SDS011;12670;53.502;10.252;2023-02-26T14:25:45;3.63;;;1.27;;
16119;SDS011;12670;53.502;10.252;2023-02-26T14:28:58;3.03;;;1.13;;
16119;SDS011;12670;53.502;10.252;2023-02-26T14:32:14;4.47;;;1.30;;
16119;SDS011;12670;53.502;10.252;2023-02-26T14:35:27;6.37;;;1.40;;
16119;SDS011;12670;53.502;10.252;2023-02-26T14:38:33;4.07;;;1.00;;
16119;SDS011;12670;53.502;10.252;2023-02-26T14:41:39;5.67;;;1.27;;
16119;SDS011;12670;53.502;10.252;2023-02-26T14:44:44;5.47;;;1.33;;
16119;SDS011;12670;53.502;10.252;2023-02-26T14:47:49;3.27;;;1.37;;
16119;SDS011;12670;53.502;10.252;2023-02-26T14:54:21;5.07;;;1.50;;
16119;SDS011;12670;53.502;10.252;2023-02-26T14:57:34;4.87;;;1.33;;
16119;SDS011;12670;53.502;10.252;2023-02-26T15:00:48;3.43;;;1.37;;
16119;SDS011;12670;53.502;10.252;2023-02-26T15:04:04;3.77;;;1.43;;
16119;SDS011;12670;53.502;10.252;2023-02-26T15:07:22;5.07;;;1.40;;
16119;SDS011;12670;53.502;10.252;2023-02-26T15:10:36;5.27;;;1.23;;
16119;SDS011;12670;53.502;10.252;2023-02-26T15:13:59;3.20;;;1.23;;
16119;SDS011;12670;53.502;10.252;2023-02-26T15:17:19;4.77;;;1.10;;
16119;SDS011;12670;53.502;10.252;2023-02-26T15:20:34;4.10;;;1.40;;
16119;SDS011;12670;53.502;10.252;2023-02-26T15:23:42;6.30;;;1.30;;
16119;SDS011;12670;53.502;10.252;2023-02-26T15:26:48;4.20;;;1.17;;
16119;SDS011;12670;53.502;10.252;2023-02-26T15:29:52;6.63;;;1.50;;
16119;SDS011;12670;53.502;10.252;2023-02-26T15:32:57;8.17;;;1.60;;
16119;SDS011;12670;53.502;10.252;2023-02-26T15:36:04;3.93;;;1.47;;
16119;SDS011;12670;53.502;10.252;2023-02-26T15:39:11;2.70;;;1.33;;
16119;SDS011;12670;53.502;10.252;2023-02-26T15:42:17;6.67;;;1.50;;
16119;SDS011;12670;53.502;10.252;2023-02-26T15:45:24;4.47;;;1.37;;
16119;SDS011;12670;53.502;10.252;2023-02-26T15:48:31;5.93;;;1.37;;
16119;SDS011;12670;53.502;10.252;2023-02-26T15:51:37;3.80;;;1.47;;
16119;SDS011;12670;53.502;10.252;2023-02-26T15:54:42;4.97;;;1.60;;
16119;SDS011;12670;53.502;10.252;2023-02-26T15:57:46;2.97;;;1.50;;
16119;SDS011;12670;53.502;10.252;2023-02-26T16:00:51;2.93;;;1.20;;
16119;SDS011;12670;53.502;10.252;2023-02-26T16:03:57;6.03;;;1.43;;
16119;SDS011;12670;53.502;10.252;2023-02-26T16:07:01;2.87;;;1.17;;
16119;SDS011;12670;53.502;10.252;2023-02-26T16:10:05;6.70;;;1.40;;
16119;SDS011;12670;53.502;10.252;2023-02-26T16:13:10;5.23;;;1.60;;
16119;SDS011;12670;53.502;10.252;2023-02-26T16:16:17;6.23;;;1.87;;
16119;SDS011;12670;53.502;10.252;2023-02-26T16:19:30;7.13;;;1.93;;
16119;SDS011;12670;53.502;10.252;2023-02-26T16:22:35;3.43;;;1.70;;
16119;SDS011;12670;53.502;10.252;2023-02-26T16:25:41;5.07;;;1.97;;
16119;SDS011;12670;53.502;10.252;2023-02-26T16:28:55;12.10;;;2.97;;
16119;SDS011;12670;53.502;10.252;2023-02-26T16:32:01;6.13;;;2.60;;
16119;SDS011;12670;53.502;10.252;2023-02-26T16:35:11;5.63;;;2.93;;
16119;SDS011;12670;53.502;10.252;2023-02-26T16:38:19;6.63;;;2.80;;
16119;SDS011;12670;53.502;10.252;2023-02-26T16:41:25;9.57;;;3.60;;
16119;SDS011;12670;53.502;10.252;2023-02-26T16:47:51;10.00;;;3.93;;
16119;SDS011;12670;53.502;10.252;2023-02-26T16:50:58;6.87;;;1.93;;
16119;SDS011;12670;53.502;10.252;2023-02-26T16:54:04;8.77;;;3.47;;
16119;SDS011;12670;53.502;10.252;2023-02-26T16:57:12;7.97;;;3.93;;
16119;SDS011;12670;53.502;10.252;2023-02-26T17:00:20;12.20;;;3.60;;
16119;SDS011;12670;53.502;10.252;2023-02-26T17:03:31;7.43;;;2.90;;
16119;SDS011;12670;53.502;10.252;2023-02-26T17:06:36;4.10;;;2.20;;
16119;SDS011;12670;53.502;10.252;2023-02-26T17:09:46;13.33;;;3.63;;
16119;SDS011;12670;53.502;10.252;2023-02-26T17:12:51;6.93;;;2.60;;
16119;SDS011;12670;53.502;10.252;2023-02-26T17:16:04;5.93;;;2.67;;
16119;SDS011;12670;53.502;10.252;2023-02-26T17:19:10;12.07;;;3.83;;
16119;SDS011;12670;53.502;10.252;2023-02-26T17:22:14;8.73;;;3.50;;
16119;SDS011;12670;53.502;10.252;2023-02-26T17:25:19;15.50;;;6.80;;
16119;SDS011;12670;53.502;10.252;2023-02-26T17:28:23;14.37;;;6.70;;
16119;SDS011;12670;53.502;10.252;2023-02-26T17:31:27;15.03;;;5.77;;
16119;SDS011;12670;53.502;10.252;2023-02-26T17:34:30;8.93;;;3.93;;
16119;SDS011;12670;53.502;10.252;2023-02-26T17:37:34;10.73;;;3.37;;
16119;SDS011;12670;53.502;10.252;2023-02-26T17:40:38;9.00;;;2.87;;
16119;SDS011;12670;53.502;10.252;2023-02-26T17:43:41;7.17;;;2.83;;
16119;SDS011;12670;53.502;10.252;2023-02-26T17:46:44;4.03;;;2.20;;
16119;SDS011;12670;53.502;10.252;2023-02-26T17:49:47;6.90;;;2.10;;
16119;SDS011;12670;53.502;10.252;2023-02-26T17:52:51;7.17;;;2.50;;
16119;SDS011;12670;53.502;10.252;2023-02-26T17:55:54;9.07;;;2.50;;
16119;SDS011;12670;53.502;10.252;2023-02-26T17:58:57;8.07;;;2.80;;
16119;SDS011;12670;53.502;10.252;2023-02-26T18:02:00;11.30;;;5.07;;
16119;SDS011;12670;53.502;10.252;2023-02-26T18:05:03;12.60;;;3.87;;
16119;SDS011;12670;53.502;10.252;2023-02-26T18:08:09;10.13;;;3.33;;
16119;SDS011;12670;53.502;10.252;2023-02-26T18:11:19;7.13;;;2.87;;
16119;SDS011;12670;53.502;10.252;2023-02-26T18:14:26;11.03;;;3.90;;
16119;SDS011;12670;53.502;10.252;2023-02-26T18:17:28;8.40;;;3.97;;
16119;SDS011;12670;53.502;10.252;2023-02-26T18:20:32;11.13;;;4.00;;
16119;SDS011;12670;53.502;10.252;2023-02-26T18:23:36;12.47;;;4.93;;
16119;SDS011;12670;53.502;10.252;2023-02-26T18:26:39;10.43;;;4.33;;
16119;SDS011;12670;53.502;10.252;2023-02-26T18:29:42;13.03;;;3.60;;
16119;SDS011;12670;53.502;10.252;2023-02-26T18:32:45;12.23;;;4.47;;
16119;SDS011;12670;53.502;10.252;2023-02-26T18:35:48;14.23;;;4.40;;
16119;SDS011;12670;53.502;10.252;2023-02-26T18:38:56;13.07;;;5.40;;
16119;SDS011;12670;53.502;10.252;2023-02-26T18:42:01;11.73;;;4.83;;
16119;SDS011;12670;53.502;10.252;2023-02-26T18:45:04;11.27;;;4.30;;
16119;SDS011;12670;53.502;10.252;2023-02-26T18:48:08;10.10;;;4.20;;